Bay City, Texas
Current Conditions -  °F | °C
As of 6:15 PM on Friday 24 Oct 2014 (Local Time) from KARM Reporting Station
Clear Clear  
Wind Chill: 78°   Ceiling: Unl
Heat Index: 79°   Visibility: 10mi
Dew Point: 55°   Wind: 3mph
Humidity: 43%   Direction: 40°NE
Pressure: 30.09"   Gusts: NA
Location:  28.98°N, 95.97°W
Report Text: KARM 242315Z AUTO 04003KT 10SM CLR 26/13 A3009 RMK AO2 T02580125
Loading
Personal Weather Stations






























Interactive Weather Map
Tropical Storm Tracking
New forecast layout! Learn more

10-Day Weather Forecast

Advertisements
Track Severe Weather on mobile